15:44
Airports
History
Links
Donate
Help keep this website running!
PayPal
Bitcoin
This page is community maintained. The information is intended for PC simulator navigation or reference.
Always use approved charts for navigation.
76KY
Buzzards Roost
Buzzards Roost (76KY)
Lawrenceburg, Kentucky, United States (40342)
4
Lat/Lng:38° 0' 53.27" N / 84° 50' 29.82" W
38.014798 / -84.841616
Elevation:770'ft / 235mMSL
ID / ICAO:76KY
Runways:1
Longest:09-27
Grass 435m / 1,426ft
Nearby Weather15:16 GMT 2018-02-19
Nearby weather at KFFT, Capital City located 12.1 nautical miles from 76KY
Altimeter: 30.10
Visibility: 10.0 statute miles
Wind: 15 knots (from 210°)
Temp: 20°c / 68°f
Humidity: 68.4%

METAR: KFFT 191516Z AUTO 21015G27KT 10SM SCT025 20/14 A3010 RMK AO2 PK WND 20027/1507 T02000139

(Powered by phpweather)
Nearby VORs <50NM
Nearby NDBs
Runway 09 / 27
Dimensions:434.5 x 30.5m 1426' x 100'ft
Surface:Grass
Runway 09 [A]Runway 27 [B]
Heading:086°TH 266°TH
Lat:
Lng:
38° 0' 52.91"N
84° 50' 38.58"W
38° 0' 53.63"N
84° 50' 21.05"W
User Notes and Comments
38° 0' 53.27" N / 84° 50' 29.82" W
Distance To
Airport ID:
Nearby Airports
(U) Capital City 12.1 NM
KFFT ( WX ) NNW 342°
(C) Blue Grass 12.8 NM
KLEX ( WX ) E 83°
(R) Lucas Field 16.0 NM
79KY SE 128°
(R) Gravity Zero 26.2 NM
99KY SSE 161°
(U) Georgetown Scott County - Mars 26.8 NM
27K NE 55°
(R) Coal Field 27.0 NM
64KY E 90°
(R) Rooster Field 27.6 NM
40KY NW 314°
VFR Chart
Flight Planning at SkyVector.com